sensor_id;sensor_type;location;lat;lon;timestamp;P1;durP1;ratioP1;P2;durP2;ratioP2
32906;SDS011;19259;51.590;5.320;2022-12-24T01:09:49;35.70;;;6.50;;
32906;SDS011;19259;51.590;5.320;2022-12-24T01:17:13;30.15;;;5.85;;
32906;SDS011;19259;51.590;5.320;2022-12-24T02:14:26;42.00;;;7.70;;
32906;SDS011;19259;51.590;5.320;2022-12-24T04:36:06;33.90;;;7.90;;
32906;SDS011;19259;51.590;5.320;2022-12-24T04:53:31;33.70;;;7.30;;
32906;SDS011;19259;51.590;5.320;2022-12-24T04:56:00;23.20;;;6.40;;
32906;SDS011;19259;51.590;5.320;2022-12-24T05:05:50;32.40;;;7.10;;
32906;SDS011;19259;51.590;5.320;2022-12-24T05:33:23;31.00;;;7.30;;
32906;SDS011;19259;51.590;5.320;2022-12-24T05:55:27;39.70;;;8.60;;
32906;SDS011;19259;51.590;5.320;2022-12-24T06:24:52;40.08;;;7.40;;
32906;SDS011;19259;51.590;5.320;2022-12-24T06:29:46;27.00;;;6.40;;
32906;SDS011;19259;51.590;5.320;2022-12-24T06:46:58;42.63;;;8.47;;
32906;SDS011;19259;51.590;5.320;2022-12-24T06:51:52;41.20;;;8.30;;
32906;SDS011;19259;51.590;5.320;2022-12-24T06:54:20;36.98;;;8.53;;
32906;SDS011;19259;51.590;5.320;2022-12-24T06:56:47;35.65;;;7.20;;
32906;SDS011;19259;51.590;5.320;2022-12-24T06:59:16;36.80;;;7.55;;
32906;SDS011;19259;51.590;5.320;2022-12-24T09:14:10;37.00;;;8.80;;
32906;SDS011;19259;51.590;5.320;2022-12-24T09:16:38;43.87;;;8.78;;
32906;SDS011;19259;51.590;5.320;2022-12-24T09:19:05;37.65;;;8.75;;
32906;SDS011;19259;51.590;5.320;2022-12-24T09:21:33;39.38;;;9.25;;
32906;SDS011;19259;51.590;5.320;2022-12-24T09:24:02;44.10;;;8.30;;
32906;SDS011;19259;51.590;5.320;2022-12-24T09:26:32;32.78;;;7.67;;
32906;SDS011;19259;51.590;5.320;2022-12-24T09:29:01;38.33;;;8.68;;
32906;SDS011;19259;51.590;5.320;2022-12-24T09:31:28;43.83;;;8.33;;
32906;SDS011;19259;51.590;5.320;2022-12-24T09:33:56;32.30;;;7.45;;
32906;SDS011;19259;51.590;5.320;2022-12-24T09:36:23;46.45;;;7.87;;
32906;SDS011;19259;51.590;5.320;2022-12-24T09:38:54;37.40;;;8.18;;
32906;SDS011;19259;51.590;5.320;2022-12-24T09:44:18;30.05;;;7.72;;
32906;SDS011;19259;51.590;5.320;2022-12-24T09:46:45;37.03;;;6.87;;
32906;SDS011;19259;51.590;5.320;2022-12-24T09:51:52;27.95;;;6.80;;
32906;SDS011;19259;51.590;5.320;2022-12-24T09:54:23;29.37;;;7.97;;
32906;SDS011;19259;51.590;5.320;2022-12-24T09:56:53;32.05;;;7.97;;
32906;SDS011;19259;51.590;5.320;2022-12-24T09:59:31;36.42;;;8.30;;
32906;SDS011;19259;51.590;5.320;2022-12-24T10:01:59;36.23;;;7.95;;
32906;SDS011;19259;51.590;5.320;2022-12-24T10:12:39;46.30;;;7.25;;
32906;SDS011;19259;51.590;5.320;2022-12-24T10:15:19;49.40;;;9.75;;
32906;SDS011;19259;51.590;5.320;2022-12-24T10:18:05;40.17;;;7.55;;
32906;SDS011;19259;51.590;5.320;2022-12-24T10:20:38;42.50;;;8.70;;
32906;SDS011;19259;51.590;5.320;2022-12-24T10:28:55;34.08;;;7.67;;
32906;SDS011;19259;51.590;5.320;2022-12-24T10:31:25;49.58;;;8.75;;
32906;SDS011;19259;51.590;5.320;2022-12-24T10:33:56;35.15;;;8.25;;
32906;SDS011;19259;51.590;5.320;2022-12-24T10:36:43;42.35;;;8.23;;
32906;SDS011;19259;51.590;5.320;2022-12-24T10:39:22;31.77;;;7.30;;
32906;SDS011;19259;51.590;5.320;2022-12-24T10:41:48;34.67;;;7.22;;
32906;SDS011;19259;51.590;5.320;2022-12-24T10:44:23;34.10;;;7.45;;
32906;SDS011;19259;51.590;5.320;2022-12-24T10:46:53;28.15;;;7.22;;
32906;SDS011;19259;51.590;5.320;2022-12-24T10:49:43;39.58;;;7.65;;
32906;SDS011;19259;51.590;5.320;2022-12-24T10:52:15;38.25;;;7.83;;
32906;SDS011;19259;51.590;5.320;2022-12-24T10:57:33;30.60;;;7.20;;
32906;SDS011;19259;51.590;5.320;2022-12-24T11:00:01;37.38;;;8.23;;
32906;SDS011;19259;51.590;5.320;2022-12-24T11:02:37;40.17;;;7.58;;
32906;SDS011;19259;51.590;5.320;2022-12-24T11:05:03;35.38;;;7.35;;
32906;SDS011;19259;51.590;5.320;2022-12-24T11:07:32;45.20;;;7.42;;
32906;SDS011;19259;51.590;5.320;2022-12-24T11:10:05;38.75;;;7.20;;
32906;SDS011;19259;51.590;5.320;2022-12-24T11:12:37;35.00;;;7.50;;
32906;SDS011;19259;51.590;5.320;2022-12-24T11:15:27;27.42;;;5.55;;
32906;SDS011;19259;51.590;5.320;2022-12-24T11:18:11;43.25;;;7.37;;
32906;SDS011;19259;51.590;5.320;2022-12-24T11:20:35;33.70;;;6.80;;
32906;SDS011;19259;51.590;5.320;2022-12-24T11:23:00;35.28;;;6.47;;
32906;SDS011;19259;51.590;5.320;2022-12-24T11:25:29;41.37;;;7.42;;
32906;SDS011;19259;51.590;5.320;2022-12-24T11:28:11;39.03;;;6.37;;
32906;SDS011;19259;51.590;5.320;2022-12-24T11:30:54;27.55;;;6.75;;
32906;SDS011;19259;51.590;5.320;2022-12-24T11:33:23;28.98;;;6.03;;
32906;SDS011;19259;51.590;5.320;2022-12-24T11:35:48;34.63;;;5.92;;
32906;SDS011;19259;51.590;5.320;2022-12-24T11:38:24;20.25;;;4.65;;
32906;SDS011;19259;51.590;5.320;2022-12-24T11:41:01;30.62;;;6.37;;
32906;SDS011;19259;51.590;5.320;2022-12-24T11:43:35;32.17;;;6.10;;
32906;SDS011;19259;51.590;5.320;2022-12-24T11:46:17;21.12;;;5.40;;
32906;SDS011;19259;51.590;5.320;2022-12-24T11:49:03;26.85;;;5.83;;
32906;SDS011;19259;51.590;5.320;2022-12-24T11:51:37;30.08;;;6.08;;
32906;SDS011;19259;51.590;5.320;2022-12-24T11:54:15;29.32;;;6.08;;
32906;SDS011;19259;51.590;5.320;2022-12-24T11:56:48;29.55;;;7.25;;
32906;SDS011;19259;51.590;5.320;2022-12-24T11:59:15;27.52;;;6.12;;
32906;SDS011;19259;51.590;5.320;2022-12-24T12:01:47;24.98;;;5.40;;
32906;SDS011;19259;51.590;5.320;2022-12-24T12:04:34;31.80;;;6.80;;
32906;SDS011;19259;51.590;5.320;2022-12-24T12:07:14;33.90;;;6.90;;
32906;SDS011;19259;51.590;5.320;2022-12-24T12:09:48;27.60;;;5.85;;
32906;SDS011;19259;51.590;5.320;2022-12-24T12:12:23;23.18;;;5.40;;
32906;SDS011;19259;51.590;5.320;2022-12-24T12:14:54;33.20;;;4.97;;
32906;SDS011;19259;51.590;5.320;2022-12-24T12:17:38;30.35;;;5.87;;
32906;SDS011;19259;51.590;5.320;2022-12-24T12:20:45;27.93;;;6.08;;
32906;SDS011;19259;51.590;5.320;2022-12-24T12:28:40;29.63;;;6.93;;
32906;SDS011;19259;51.590;5.320;2022-12-24T12:31:25;30.80;;;6.00;;
32906;SDS011;19259;51.590;5.320;2022-12-24T12:33:59;27.70;;;6.23;;
32906;SDS011;19259;51.590;5.320;2022-12-24T12:36:38;34.20;;;6.58;;
32906;SDS011;19259;51.590;5.320;2022-12-24T12:39:14;25.77;;;6.10;;
32906;SDS011;19259;51.590;5.320;2022-12-24T12:52:15;24.80;;;5.87;;
32906;SDS011;19259;51.590;5.320;2022-12-24T12:54:58;29.48;;;6.10;;
32906;SDS011;19259;51.590;5.320;2022-12-24T12:57:27;25.10;;;4.95;;
32906;SDS011;19259;51.590;5.320;2022-12-24T13:00:11;25.30;;;4.75;;
32906;SDS011;19259;51.590;5.320;2022-12-24T13:08:26;40.00;;;6.75;;
32906;SDS011;19259;51.590;5.320;2022-12-24T13:21:28;24.32;;;5.15;;
32906;SDS011;19259;51.590;5.320;2022-12-24T13:27:10;24.82;;;4.45;;
32906;SDS011;19259;51.590;5.320;2022-12-24T13:35:03;31.75;;;6.25;;
32906;SDS011;19259;51.590;5.320;2022-12-24T13:37:34;29.02;;;6.10;;
32906;SDS011;19259;51.590;5.320;2022-12-24T13:42:50;29.45;;;7.35;;
32906;SDS011;19259;51.590;5.320;2022-12-24T13:50:43;23.57;;;5.95;;
32906;SDS011;19259;51.590;5.320;2022-12-24T13:53:26;25.75;;;6.35;;
32906;SDS011;19259;51.590;5.320;2022-12-24T13:56:05;33.60;;;6.45;;
32906;SDS011;19259;51.590;5.320;2022-12-24T13:58:36;35.88;;;7.92;;
32906;SDS011;19259;51.590;5.320;2022-12-24T14:01:11;42.43;;;8.33;;
32906;SDS011;19259;51.590;5.320;2022-12-24T14:03:43;35.08;;;7.67;;
32906;SDS011;19259;51.590;5.320;2022-12-24T14:08:53;27.60;;;6.97;;
32906;SDS011;19259;51.590;5.320;2022-12-24T14:11:27;27.02;;;7.58;;
32906;SDS011;19259;51.590;5.320;2022-12-24T14:16:41;28.98;;;7.00;;
32906;SDS011;19259;51.590;5.320;2022-12-24T14:22:01;34.03;;;7.78;;
32906;SDS011;19259;51.590;5.320;2022-12-24T14:24:34;31.35;;;7.42;;
32906;SDS011;19259;51.590;5.320;2022-12-24T14:27:16;28.75;;;8.68;;
32906;SDS011;19259;51.590;5.320;2022-12-24T14:29:49;38.25;;;9.35;;
32906;SDS011;19259;51.590;5.320;2022-12-24T14:32:22;37.30;;;9.60;;
32906;SDS011;19259;51.590;5.320;2022-12-24T14:37:35;29.12;;;9.70;;
32906;SDS011;19259;51.590;5.320;2022-12-24T14:40:04;27.87;;;9.15;;
32906;SDS011;19259;51.590;5.320;2022-12-24T14:42:37;28.83;;;9.98;;
32906;SDS011;19259;51.590;5.320;2022-12-24T14:55:49;31.82;;;11.45;;
32906;SDS011;19259;51.590;5.320;2022-12-24T14:58:17;34.27;;;9.95;;
32906;SDS011;19259;51.590;5.320;2022-12-24T15:00:46;36.98;;;11.18;;
32906;SDS011;19259;51.590;5.320;2022-12-24T15:03:16;37.05;;;10.58;;
32906;SDS011;19259;51.590;5.320;2022-12-24T15:05:49;30.75;;;9.85;;
32906;SDS011;19259;51.590;5.320;2022-12-24T15:08:21;32.08;;;10.23;;
32906;SDS011;19259;51.590;5.320;2022-12-24T15:10:52;38.00;;;10.82;;
32906;SDS011;19259;51.590;5.320;2022-12-24T15:13:27;30.72;;;10.72;;
32906;SDS011;19259;51.590;5.320;2022-12-24T15:16:02;34.23;;;10.03;;
32906;SDS011;19259;51.590;5.320;2022-12-24T15:18:31;41.95;;;10.60;;
32906;SDS011;19259;51.590;5.320;2022-12-24T15:21:03;38.83;;;9.73;;
32906;SDS011;19259;51.590;5.320;2022-12-24T15:23:32;39.80;;;10.72;;
32906;SDS011;19259;51.590;5.320;2022-12-24T15:26:13;49.20;;;10.85;;
32906;SDS011;19259;51.590;5.320;2022-12-24T15:28:51;33.13;;;9.18;;
32906;SDS011;19259;51.590;5.320;2022-12-24T15:31:20;33.83;;;10.18;;
32906;SDS011;19259;51.590;5.320;2022-12-24T15:33:51;35.95;;;10.28;;
32906;SDS011;19259;51.590;5.320;2022-12-24T15:36:34;43.00;;;9.93;;
32906;SDS011;19259;51.590;5.320;2022-12-24T15:39:06;34.30;;;10.08;;
32906;SDS011;19259;51.590;5.320;2022-12-24T15:41:37;45.98;;;15.15;;
32906;SDS011;19259;51.590;5.320;2022-12-24T15:44:11;35.38;;;10.85;;
32906;SDS011;19259;51.590;5.320;2022-12-24T15:46:39;40.33;;;10.85;;
32906;SDS011;19259;51.590;5.320;2022-12-24T15:49:12;38.13;;;11.08;;
32906;SDS011;19259;51.590;5.320;2022-12-24T15:51:37;44.42;;;11.15;;
32906;SDS011;19259;51.590;5.320;2022-12-24T15:54:05;35.73;;;10.08;;
32906;SDS011;19259;51.590;5.320;2022-12-24T15:56:36;35.15;;;9.60;;
32906;SDS011;19259;51.590;5.320;2022-12-24T15:59:20;33.28;;;11.22;;
32906;SDS011;19259;51.590;5.320;2022-12-24T16:04:54;32.15;;;10.82;;
32906;SDS011;19259;51.590;5.320;2022-12-24T16:07:41;34.73;;;11.90;;
32906;SDS011;19259;51.590;5.320;2022-12-24T16:10:22;48.58;;;11.10;;
32906;SDS011;19259;51.590;5.320;2022-12-24T16:12:52;38.38;;;12.33;;
32906;SDS011;19259;51.590;5.320;2022-12-24T16:15:20;37.50;;;12.20;;
32906;SDS011;19259;51.590;5.320;2022-12-24T16:17:48;52.15;;;12.98;;
32906;SDS011;19259;51.590;5.320;2022-12-24T16:20:19;36.35;;;11.48;;
32906;SDS011;19259;51.590;5.320;2022-12-24T16:22:47;44.05;;;13.15;;
32906;SDS011;19259;51.590;5.320;2022-12-24T16:27:51;40.17;;;12.68;;
32906;SDS011;19259;51.590;5.320;2022-12-24T16:30:24;40.88;;;14.10;;
32906;SDS011;19259;51.590;5.320;2022-12-24T16:32:52;52.48;;;12.55;;
32906;SDS011;19259;51.590;5.320;2022-12-24T16:35:29;43.28;;;14.38;;
32906;SDS011;19259;51.590;5.320;2022-12-24T16:37:53;41.00;;;13.13;;
32906;SDS011;19259;51.590;5.320;2022-12-24T16:40:21;55.60;;;12.95;;
32906;SDS011;19259;51.590;5.320;2022-12-24T16:42:48;45.48;;;13.58;;
32906;SDS011;19259;51.590;5.320;2022-12-24T16:45:34;40.58;;;12.98;;
32906;SDS011;19259;51.590;5.320;2022-12-24T16:48:04;38.63;;;12.18;;
32906;SDS011;19259;51.590;5.320;2022-12-24T16:50:33;35.15;;;12.47;;
32906;SDS011;19259;51.590;5.320;2022-12-24T16:53:01;46.53;;;13.13;;
32906;SDS011;19259;51.590;5.320;2022-12-24T16:55:28;42.30;;;12.63;;
32906;SDS011;19259;51.590;5.320;2022-12-24T16:57:56;42.13;;;12.00;;
32906;SDS011;19259;51.590;5.320;2022-12-24T17:00:23;45.10;;;12.07;;
32906;SDS011;19259;51.590;5.320;2022-12-24T17:02:52;55.67;;;12.58;;
32906;SDS011;19259;51.590;5.320;2022-12-24T17:05:20;42.95;;;12.28;;
32906;SDS011;19259;51.590;5.320;2022-12-24T17:07:53;42.90;;;12.40;;
32906;SDS011;19259;51.590;5.320;2022-12-24T17:10:17;50.38;;;13.58;;
32906;SDS011;19259;51.590;5.320;2022-12-24T17:12:45;44.55;;;12.37;;
32906;SDS011;19259;51.590;5.320;2022-12-24T17:15:12;39.48;;;12.47;;
32906;SDS011;19259;51.590;5.320;2022-12-24T17:17:40;40.98;;;13.05;;
32906;SDS011;19259;51.590;5.320;2022-12-24T17:20:07;42.70;;;12.60;;
32906;SDS011;19259;51.590;5.320;2022-12-24T17:22:36;37.80;;;12.70;;
32906;SDS011;19259;51.590;5.320;2022-12-24T17:25:04;37.17;;;12.98;;
32906;SDS011;19259;51.590;5.320;2022-12-24T17:27:32;42.30;;;12.65;;
32906;SDS011;19259;51.590;5.320;2022-12-24T17:30:00;43.75;;;12.98;;
32906;SDS011;19259;51.590;5.320;2022-12-24T17:32:27;41.20;;;13.15;;
32906;SDS011;19259;51.590;5.320;2022-12-24T17:34:55;59.55;;;12.73;;
32906;SDS011;19259;51.590;5.320;2022-12-24T17:37:25;43.85;;;12.20;;
32906;SDS011;19259;51.590;5.320;2022-12-24T17:39:52;49.13;;;11.78;;
32906;SDS011;19259;51.590;5.320;2022-12-24T17:42:20;46.02;;;14.23;;
32906;SDS011;19259;51.590;5.320;2022-12-24T17:44:48;47.15;;;13.98;;
32906;SDS011;19259;51.590;5.320;2022-12-24T17:47:15;64.05;;;16.45;;
32906;SDS011;19259;51.590;5.320;2022-12-24T17:49:43;42.65;;;14.55;;
32906;SDS011;19259;51.590;5.320;2022-12-24T17:52:10;40.88;;;13.90;;
32906;SDS011;19259;51.590;5.320;2022-12-24T17:54:38;42.93;;;13.32;;
32906;SDS011;19259;51.590;5.320;2022-12-24T17:57:05;39.78;;;13.68;;
32906;SDS011;19259;51.590;5.320;2022-12-24T17:59:33;42.40;;;14.15;;
32906;SDS011;19259;51.590;5.320;2022-12-24T18:02:00;44.63;;;14.20;;
32906;SDS011;19259;51.590;5.320;2022-12-24T18:04:28;44.60;;;13.60;;
32906;SDS011;19259;51.590;5.320;2022-12-24T18:06:55;49.27;;;13.93;;
32906;SDS011;19259;51.590;5.320;2022-12-24T18:09:24;49.55;;;14.50;;
32906;SDS011;19259;51.590;5.320;2022-12-24T18:11:53;47.10;;;13.70;;
32906;SDS011;19259;51.590;5.320;2022-12-24T18:16:49;52.10;;;12.93;;
32906;SDS011;19259;51.590;5.320;2022-12-24T18:19:20;37.93;;;13.03;;
32906;SDS011;19259;51.590;5.320;2022-12-24T18:21:46;42.93;;;12.40;;
32906;SDS011;19259;51.590;5.320;2022-12-24T18:24:13;38.98;;;12.47;;
32906;SDS011;19259;51.590;5.320;2022-12-24T18:29:09;41.00;;;13.05;;
32906;SDS011;19259;51.590;5.320;2022-12-24T18:31:37;56.73;;;16.65;;
32906;SDS011;19259;51.590;5.320;2022-12-24T18:34:06;56.68;;;18.67;;
32906;SDS011;19259;51.590;5.320;2022-12-24T18:36:35;62.58;;;19.12;;
32906;SDS011;19259;51.590;5.320;2022-12-24T18:39:03;45.58;;;17.45;;
32906;SDS011;19259;51.590;5.320;2022-12-24T18:41:31;63.45;;;19.42;;
32906;SDS011;19259;51.590;5.320;2022-12-24T18:44:00;55.90;;;18.30;;
32906;SDS011;19259;51.590;5.320;2022-12-24T18:46:29;50.67;;;17.07;;
32906;SDS011;19259;51.590;5.320;2022-12-24T18:49:03;42.17;;;15.03;;
32906;SDS011;19259;51.590;5.320;2022-12-24T18:51:29;49.20;;;16.17;;
32906;SDS011;19259;51.590;5.320;2022-12-24T18:53:59;56.02;;;17.25;;
32906;SDS011;19259;51.590;5.320;2022-12-24T18:56:27;56.18;;;14.65;;
32906;SDS011;19259;51.590;5.320;2022-12-24T18:59:00;45.63;;;15.65;;
32906;SDS011;19259;51.590;5.320;2022-12-24T19:01:29;45.08;;;14.38;;
32906;SDS011;19259;51.590;5.320;2022-12-24T19:04:05;42.73;;;12.70;;
32906;SDS011;19259;51.590;5.320;2022-12-24T19:06:29;47.53;;;13.88;;
32906;SDS011;19259;51.590;5.320;2022-12-24T19:08:56;43.07;;;13.87;;
32906;SDS011;19259;51.590;5.320;2022-12-24T19:11:24;43.83;;;12.13;;
32906;SDS011;19259;51.590;5.320;2022-12-24T19:13:53;44.50;;;12.58;;
32906;SDS011;19259;51.590;5.320;2022-12-24T19:16:22;48.45;;;12.80;;
32906;SDS011;19259;51.590;5.320;2022-12-24T19:18:50;45.05;;;13.43;;
32906;SDS011;19259;51.590;5.320;2022-12-24T19:21:17;49.08;;;13.85;;
32906;SDS011;19259;51.590;5.320;2022-12-24T19:23:45;40.20;;;12.83;;
32906;SDS011;19259;51.590;5.320;2022-12-24T19:26:14;43.68;;;12.65;;
32906;SDS011;19259;51.590;5.320;2022-12-24T19:28:43;64.75;;;13.00;;
32906;SDS011;19259;51.590;5.320;2022-12-24T19:31:12;39.40;;;10.95;;
32906;SDS011;19259;51.590;5.320;2022-12-24T19:33:49;48.05;;;12.00;;
32906;SDS011;19259;51.590;5.320;2022-12-24T19:36:22;46.00;;;11.57;;
32906;SDS011;19259;51.590;5.320;2022-12-24T19:38:51;38.73;;;12.20;;
32906;SDS011;19259;51.590;5.320;2022-12-24T19:41:21;48.68;;;12.82;;
32906;SDS011;19259;51.590;5.320;2022-12-24T19:43:51;52.08;;;11.75;;
32906;SDS011;19259;51.590;5.320;2022-12-24T19:46:25;48.00;;;12.80;;
32906;SDS011;19259;51.590;5.320;2022-12-24T19:48:55;47.50;;;11.77;;
32906;SDS011;19259;51.590;5.320;2022-12-24T19:51:25;49.23;;;12.13;;
32906;SDS011;19259;51.590;5.320;2022-12-24T19:53:54;35.17;;;12.47;;
32906;SDS011;19259;51.590;5.320;2022-12-24T19:56:24;46.80;;;13.10;;
32906;SDS011;19259;51.590;5.320;2022-12-24T19:58:53;51.90;;;12.93;;
32906;SDS011;19259;51.590;5.320;2022-12-24T20:01:24;44.03;;;12.15;;
32906;SDS011;19259;51.590;5.320;2022-12-24T20:03:54;42.58;;;13.38;;
32906;SDS011;19259;51.590;5.320;2022-12-24T20:06:23;43.48;;;13.45;;
32906;SDS011;19259;51.590;5.320;2022-12-24T20:08:56;41.58;;;12.90;;
32906;SDS011;19259;51.590;5.320;2022-12-24T20:11:25;52.20;;;13.43;;
32906;SDS011;19259;51.590;5.320;2022-12-24T20:13:57;45.80;;;13.95;;
32906;SDS011;19259;51.590;5.320;2022-12-24T20:16:26;42.55;;;12.80;;
32906;SDS011;19259;51.590;5.320;2022-12-24T20:18:55;42.15;;;13.70;;
32906;SDS011;19259;51.590;5.320;2022-12-24T20:21:24;41.25;;;14.23;;
32906;SDS011;19259;51.590;5.320;2022-12-24T20:23:58;37.88;;;13.80;;
32906;SDS011;19259;51.590;5.320;2022-12-24T20:26:26;48.40;;;14.30;;
32906;SDS011;19259;51.590;5.320;2022-12-24T20:28:55;47.60;;;14.05;;
32906;SDS011;19259;51.590;5.320;2022-12-24T20:31:25;42.98;;;14.78;;
32906;SDS011;19259;51.590;5.320;2022-12-24T20:33:54;48.42;;;14.73;;
32906;SDS011;19259;51.590;5.320;2022-12-24T20:36:22;38.48;;;13.30;;
32906;SDS011;19259;51.590;5.320;2022-12-24T20:38:51;55.90;;;14.45;;
32906;SDS011;19259;51.590;5.320;2022-12-24T20:41:19;47.58;;;14.43;;
32906;SDS011;19259;51.590;5.320;2022-12-24T20:43:48;46.95;;;15.30;;
32906;SDS011;19259;51.590;5.320;2022-12-24T20:46:16;54.77;;;13.55;;
32906;SDS011;19259;51.590;5.320;2022-12-24T20:48:46;39.97;;;14.17;;
32906;SDS011;19259;51.590;5.320;2022-12-24T20:51:16;39.35;;;12.82;;
32906;SDS011;19259;51.590;5.320;2022-12-24T20:53:44;44.70;;;13.13;;
32906;SDS011;19259;51.590;5.320;2022-12-24T20:56:12;43.65;;;12.65;;
32906;SDS011;19259;51.590;5.320;2022-12-24T20:58:41;42.98;;;12.40;;
32906;SDS011;19259;51.590;5.320;2022-12-24T21:01:22;56.85;;;13.03;;
32906;SDS011;19259;51.590;5.320;2022-12-24T21:03:45;41.27;;;12.67;;
32906;SDS011;19259;51.590;5.320;2022-12-24T21:06:13;51.10;;;12.85;;
32906;SDS011;19259;51.590;5.320;2022-12-24T21:08:43;54.65;;;12.55;;
32906;SDS011;19259;51.590;5.320;2022-12-24T21:11:11;39.23;;;12.18;;
32906;SDS011;19259;51.590;5.320;2022-12-24T21:13:57;48.80;;;12.88;;
32906;SDS011;19259;51.590;5.320;2022-12-24T21:16:27;55.75;;;12.80;;
32906;SDS011;19259;51.590;5.320;2022-12-24T21:18:55;49.48;;;13.13;;
32906;SDS011;19259;51.590;5.320;2022-12-24T21:21:23;45.35;;;12.75;;
32906;SDS011;19259;51.590;5.320;2022-12-24T21:23:51;41.92;;;11.73;;
32906;SDS011;19259;51.590;5.320;2022-12-24T21:26:19;38.08;;;12.58;;
32906;SDS011;19259;51.590;5.320;2022-12-24T21:28:46;48.33;;;13.03;;
32906;SDS011;19259;51.590;5.320;2022-12-24T21:31:15;51.00;;;13.25;;
32906;SDS011;19259;51.590;5.320;2022-12-24T21:33:43;37.65;;;12.68;;
32906;SDS011;19259;51.590;5.320;2022-12-24T21:36:12;44.45;;;12.35;;
32906;SDS011;19259;51.590;5.320;2022-12-24T21:38:41;44.00;;;14.03;;
32906;SDS011;19259;51.590;5.320;2022-12-24T21:41:11;38.42;;;12.18;;
32906;SDS011;19259;51.590;5.320;2022-12-24T21:43:39;40.07;;;13.53;;
32906;SDS011;19259;51.590;5.320;2022-12-24T21:46:12;44.10;;;13.98;;
32906;SDS011;19259;51.590;5.320;2022-12-24T21:48:37;57.55;;;12.90;;
32906;SDS011;19259;51.590;5.320;2022-12-24T21:51:23;40.80;;;12.20;;
32906;SDS011;19259;51.590;5.320;2022-12-24T21:53:55;68.37;;;12.98;;
32906;SDS011;19259;51.590;5.320;2022-12-24T21:56:44;33.73;;;12.07;;
32906;SDS011;19259;51.590;5.320;2022-12-24T21:59:28;49.10;;;14.07;;
32906;SDS011;19259;51.590;5.320;2022-12-24T22:01:56;37.33;;;13.20;;
32906;SDS011;19259;51.590;5.320;2022-12-24T22:04:26;37.67;;;12.07;;
32906;SDS011;19259;51.590;5.320;2022-12-24T22:06:53;36.10;;;11.45;;
32906;SDS011;19259;51.590;5.320;2022-12-24T22:09:38;43.23;;;12.50;;
32906;SDS011;19259;51.590;5.320;2022-12-24T22:12:27;34.60;;;13.03;;
32906;SDS011;19259;51.590;5.320;2022-12-24T22:15:03;50.00;;;11.40;;
32906;SDS011;19259;51.590;5.320;2022-12-24T22:17:27;43.92;;;12.18;;
32906;SDS011;19259;51.590;5.320;2022-12-24T22:19:58;59.60;;;15.00;;
32906;SDS011;19259;51.590;5.320;2022-12-24T22:22:24;46.23;;;12.63;;
32906;SDS011;19259;51.590;5.320;2022-12-24T22:24:53;41.58;;;12.25;;
32906;SDS011;19259;51.590;5.320;2022-12-24T22:27:20;34.33;;;11.90;;
32906;SDS011;19259;51.590;5.320;2022-12-24T22:29:48;37.58;;;11.97;;
32906;SDS011;19259;51.590;5.320;2022-12-24T22:32:16;49.95;;;12.20;;
32906;SDS011;19259;51.590;5.320;2022-12-24T22:34:43;38.28;;;10.88;;
32906;SDS011;19259;51.590;5.320;2022-12-24T22:37:13;35.35;;;12.70;;
32906;SDS011;19259;51.590;5.320;2022-12-24T22:39:41;51.35;;;11.60;;
32906;SDS011;19259;51.590;5.320;2022-12-24T22:42:09;42.33;;;11.85;;
32906;SDS011;19259;51.590;5.320;2022-12-24T22:44:36;45.33;;;12.47;;
32906;SDS011;19259;51.590;5.320;2022-12-24T22:47:04;47.93;;;12.53;;
32906;SDS011;19259;51.590;5.320;2022-12-24T22:49:31;39.38;;;11.35;;
32906;SDS011;19259;51.590;5.320;2022-12-24T22:52:01;38.15;;;11.05;;
32906;SDS011;19259;51.590;5.320;2022-12-24T22:54:28;52.13;;;11.63;;
32906;SDS011;19259;51.590;5.320;2022-12-24T22:56:56;44.75;;;11.43;;
32906;SDS011;19259;51.590;5.320;2022-12-24T22:59:23;43.17;;;11.33;;
32906;SDS011;19259;51.590;5.320;2022-12-24T23:01:56;39.20;;;11.10;;
32906;SDS011;19259;51.590;5.320;2022-12-24T23:04:22;32.70;;;10.43;;
32906;SDS011;19259;51.590;5.320;2022-12-24T23:06:50;32.67;;;11.50;;
32906;SDS011;19259;51.590;5.320;2022-12-24T23:09:18;33.30;;;10.35;;
32906;SDS011;19259;51.590;5.320;2022-12-24T23:11:45;45.53;;;11.77;;
32906;SDS011;19259;51.590;5.320;2022-12-24T23:14:14;43.28;;;11.85;;
32906;SDS011;19259;51.590;5.320;2022-12-24T23:17:01;36.20;;;10.80;;
32906;SDS011;19259;51.590;5.320;2022-12-24T23:19:28;28.92;;;10.82;;
32906;SDS011;19259;51.590;5.320;2022-12-24T23:21:58;43.90;;;12.30;;
32906;SDS011;19259;51.590;5.320;2022-12-24T23:24:27;44.23;;;11.87;;
32906;SDS011;19259;51.590;5.320;2022-12-24T23:26:55;34.05;;;10.40;;
32906;SDS011;19259;51.590;5.320;2022-12-24T23:29:24;30.95;;;11.48;;
32906;SDS011;19259;51.590;5.320;2022-12-24T23:31:51;51.88;;;12.68;;
32906;SDS011;19259;51.590;5.320;2022-12-24T23:34:19;35.70;;;11.30;;
32906;SDS011;19259;51.590;5.320;2022-12-24T23:36:47;37.60;;;10.48;;
32906;SDS011;19259;51.590;5.320;2022-12-24T23:39:15;28.50;;;10.53;;
32906;SDS011;19259;51.590;5.320;2022-12-24T23:41:45;29.37;;;10.63;;
32906;SDS011;19259;51.590;5.320;2022-12-24T23:44:12;31.23;;;10.00;;
32906;SDS011;19259;51.590;5.320;2022-12-24T23:46:40;34.23;;;11.50;;
32906;SDS011;19259;51.590;5.320;2022-12-24T23:49:10;36.03;;;10.82;;
32906;SDS011;19259;51.590;5.320;2022-12-24T23:51:40;35.78;;;10.23;;
32906;SDS011;19259;51.590;5.320;2022-12-24T23:54:08;34.63;;;10.32;;
32906;SDS011;19259;51.590;5.320;2022-12-24T23:56:36;26.35;;;9.70;;
32906;SDS011;19259;51.590;5.320;2022-12-24T23:59:03;34.00;;;10.88;;
